Time;durP1;ratioP1;P1;durP2;ratioP2;P2;SDS_P1;SDS_P2;PMS_P1;PMS_P2;Temp;Humidity;BMP_temperature;BMP_pressure;BME280_temperature;BME280_humidity;BME280_pressure;Samples;Min_cycle;Max_cycle;Signal;HPM_P1;HPM_P2
2024/03/19 00:00:33;;;;;;;20.00;12.20;;;9.20;99.90;;;;;;4988146;28;20037;-82
2024/03/19 00:02:59;;;;;;;28.50;15.07;;;9.20;99.90;;;;;;4989743;28;20056;-82
2024/03/19 00:05:25;;;;;;;28.83;14.55;;;9.30;99.90;;;;;;4959115;28;20034;-82
2024/03/19 00:07:50;;;;;;;28.08;14.70;;;9.30;99.90;;;;;;4977326;28;20034;-82
2024/03/19 00:10:16;;;;;;;28.80;15.63;;;9.20;99.90;;;;;;4986198;28;20034;-81
2024/03/19 00:12:42;;;;;;;26.67;15.27;;;9.30;99.90;;;;;;4983207;28;20064;-81
2024/03/19 00:15:09;;;;;;;27.98;14.85;;;9.20;99.90;;;;;;4984040;28;20033;-82
2024/03/19 00:17:35;;;;;;;28.73;15.77;;;9.30;99.90;;;;;;4990722;28;20523;-82
2024/03/19 00:20:00;;;;;;;25.00;14.63;;;9.20;99.90;;;;;;4968501;28;20030;-80
2024/03/19 00:22:26;;;;;;;13.02;7.85;;;9.20;99.90;;;;;;4970975;28;20031;-81
2024/03/19 00:24:51;;;;;;;32.97;14.50;;;9.30;99.90;;;;;;4984459;28;20036;-82
2024/03/19 00:27:17;;;;;;;36.42;15.82;;;9.30;99.90;;;;;;4970942;28;20034;-81
2024/03/19 00:29:42;;;;;;;30.13;14.25;;;9.20;99.90;;;;;;4958642;28;20037;-81
2024/03/19 00:32:08;;;;;;;15.07;10.00;;;9.20;99.90;;;;;;4985332;28;20062;-81
2024/03/19 00:34:35;;;;;;;26.77;15.05;;;9.30;99.90;;;;;;4970847;28;20025;-83
2024/03/19 00:37:01;;;;;;;17.25;10.68;;;9.20;99.90;;;;;;4956957;28;20121;-82
2024/03/19 00:39:28;;;;;;;26.10;13.30;;;9.20;99.90;;;;;;4973381;28;20843;-81
2024/03/19 00:41:54;;;;;;;26.30;15.40;;;9.20;99.90;;;;;;4988318;28;20027;-80
2024/03/19 00:44:19;;;;;;;28.35;15.52;;;9.20;99.90;;;;;;4989959;28;20054;-81
2024/03/19 00:46:45;;;;;;;26.75;14.30;;;9.20;99.90;;;;;;4967553;28;20022;-82
2024/03/19 00:49:10;;;;;;;22.58;12.60;;;9.30;99.90;;;;;;4973135;28;20034;-80
2024/03/19 00:51:36;;;;;;;13.25;8.65;;;9.30;99.90;;;;;;4972412;28;20137;-82
2024/03/19 00:54:01;;;;;;;30.38;15.63;;;9.20;99.90;;;;;;4970244;28;20077;-82
2024/03/19 00:56:27;;;;;;;29.60;15.80;;;9.30;99.90;;;;;;4957100;28;20069;-80
2024/03/19 00:58:52;;;;;;;29.45;16.30;;;9.30;99.90;;;;;;4970041;28;20044;-82
2024/03/19 01:01:18;;;;;;;30.15;15.38;;;9.30;99.90;;;;;;4985621;28;20568;-82
2024/03/19 01:03:43;;;;;;;28.50;15.52;;;9.30;99.90;;;;;;4972976;28;20034;-82
2024/03/19 01:06:09;;;;;;;33.67;16.70;;;9.30;99.90;;;;;;4971886;28;20031;-82
2024/03/19 01:08:35;;;;;;;27.02;15.57;;;9.30;99.90;;;;;;4989076;28;20018;-82
2024/03/19 01:11:03;;;;;;;28.50;16.08;;;9.20;99.90;;;;;;4953146;28;20023;-82
2024/03/19 01:13:31;;;;;;;27.80;15.57;;;9.30;99.90;;;;;;4985182;28;20062;-82
2024/03/19 01:15:57;;;;;;;32.17;16.38;;;9.30;99.90;;;;;;4958435;28;20515;-82
2024/03/19 01:18:23;;;;;;;28.45;16.98;;;9.30;99.90;;;;;;4992164;28;20039;-82
2024/03/19 01:20:49;;;;;;;30.02;16.25;;;9.30;99.90;;;;;;4968025;28;20081;-82
2024/03/19 01:23:14;;;;;;;27.98;17.00;;;9.20;99.90;;;;;;4955850;28;20045;-83
2024/03/19 01:25:40;;;;;;;31.77;16.52;;;9.20;99.90;;;;;;4970857;28;20395;-83
2024/03/19 01:28:05;;;;;;;35.10;17.02;;;9.20;99.90;;;;;;4984414;28;20038;-82
2024/03/19 01:30:32;;;;;;;30.35;17.38;;;9.10;99.90;;;;;;4956469;28;20116;-77
2024/03/19 01:32:58;;;;;;;28.55;16.65;;;9.10;99.90;;;;;;4955706;28;20031;-79
2024/03/19 01:35:23;;;;;;;30.50;16.10;;;9.00;99.90;;;;;;4951188;28;20060;-79
2024/03/19 01:37:49;;;;;;;34.78;17.15;;;8.90;99.90;;;;;;4957534;28;20125;-77
2024/03/19 01:40:14;;;;;;;33.47;19.02;;;8.90;99.90;;;;;;4955337;28;20034;-77
2024/03/19 01:42:40;;;;;;;28.40;15.75;;;8.80;99.90;;;;;;4969855;28;20085;-77
2024/03/19 01:45:07;;;;;;;30.60;14.38;;;8.80;99.90;;;;;;4969744;28;20034;-78
2024/03/19 01:47:35;;;;;;;24.90;14.07;;;8.80;99.90;;;;;;4969284;28;20042;-77
2024/03/19 01:50:05;;;;;;;25.73;15.02;;;8.80;99.90;;;;;;4950098;28;20042;-77
2024/03/19 01:52:33;;;;;;;25.95;15.77;;;8.80;99.90;;;;;;4977013;28;20054;-77
2024/03/19 01:54:58;;;;;;;32.40;16.58;;;8.80;99.90;;;;;;4967306;28;20484;-78
2024/03/19 01:57:24;;;;;;;31.77;14.57;;;8.70;99.90;;;;;;4985292;28;20034;-78
2024/03/19 01:59:50;;;;;;;25.63;15.85;;;8.80;99.90;;;;;;4953668;28;20050;-77
2024/03/19 02:02:35;;;;;;;28.88;15.40;;;8.80;99.90;;;;;;4971101;28;20317;-77
2024/03/19 02:05:01;;;;;;;37.43;15.63;;;8.80;99.90;;;;;;4963400;28;20088;-77
2024/03/19 02:07:27;;;;;;;32.13;17.10;;;8.80;99.90;;;;;;4970200;28;20266;-77
2024/03/19 02:09:55;;;;;;;20.25;9.88;;;8.80;99.90;;;;;;4972575;28;20446;-77
2024/03/19 02:12:21;;;;;;;25.60;14.77;;;8.80;99.90;;;;;;4969025;28;20676;-77
2024/03/19 02:14:47;;;;;;;16.15;10.38;;;8.80;99.90;;;;;;4967205;28;20033;-78
2024/03/19 02:17:12;;;;;;;21.67;11.75;;;8.80;99.90;;;;;;4959235;28;20038;-77
2024/03/19 02:19:38;;;;;;;25.23;13.98;;;8.90;99.90;;;;;;4989405;28;20546;-77
2024/03/19 02:22:05;;;;;;;19.35;9.60;;;8.80;99.90;;;;;;4973170;28;20523;-78
2024/03/19 02:24:31;;;;;;;25.05;14.60;;;8.90;99.90;;;;;;4958342;28;20563;-78
2024/03/19 02:26:57;;;;;;;23.58;13.35;;;8.90;99.90;;;;;;4976937;28;20260;-78
2024/03/19 02:29:23;;;;;;;33.30;13.35;;;8.90;99.90;;;;;;4973960;28;20529;-79
2024/03/19 02:31:48;;;;;;;25.95;13.50;;;8.90;99.90;;;;;;4957556;28;20575;-77
2024/03/19 02:34:14;;;;;;;28.60;14.00;;;8.80;99.90;;;;;;4974282;28;20030;-77
2024/03/19 02:36:39;;;;;;;24.00;12.38;;;8.80;99.90;;;;;;4974622;28;20034;-77
2024/03/19 02:39:05;;;;;;;21.38;10.50;;;8.80;99.90;;;;;;4969186;28;20105;-77
2024/03/19 02:41:31;;;;;;;30.30;14.95;;;8.70;99.90;;;;;;4960437;28;20071;-77
2024/03/19 02:43:57;;;;;;;25.30;13.38;;;8.60;99.90;;;;;;4974676;28;20049;-77
2024/03/19 02:46:24;;;;;;;29.73;13.93;;;8.40;99.90;;;;;;4987981;28;20062;-77
2024/03/19 02:48:49;;;;;;;29.83;14.45;;;8.40;99.90;;;;;;4974516;28;20034;-76
2024/03/19 02:51:15;;;;;;;29.17;14.50;;;8.40;99.90;;;;;;4952945;28;20038;-77
2024/03/19 02:53:40;;;;;;;27.90;13.15;;;8.50;99.90;;;;;;4973859;28;20035;-78
2024/03/19 02:56:06;;;;;;;26.80;13.75;;;8.60;99.90;;;;;;4950287;28;20038;-79
2024/03/19 02:58:32;;;;;;;34.13;14.20;;;8.60;99.90;;;;;;4989638;28;20071;-76
2024/03/19 03:00:57;;;;;;;28.92;14.43;;;8.40;99.90;;;;;;4977513;28;20049;-76
2024/03/19 03:03:23;;;;;;;26.10;13.48;;;8.40;99.90;;;;;;4959205;28;20058;-78
2024/03/19 03:05:49;;;;;;;30.02;13.52;;;8.30;99.90;;;;;;4992584;28;20042;-78
2024/03/19 03:08:15;;;;;;;18.52;9.45;;;8.30;99.90;;;;;;4987303;28;20027;-79
2024/03/19 03:10:40;;;;;;;25.17;12.07;;;8.50;99.90;;;;;;4973227;28;20034;-77
2024/03/19 03:13:06;;;;;;;27.05;14.23;;;8.60;99.90;;;;;;4973557;28;20038;-77
2024/03/19 03:15:32;;;;;;;29.83;13.95;;;8.60;99.90;;;;;;4955771;28;20041;-78
2024/03/19 03:17:57;;;;;;;23.45;13.43;;;8.60;99.90;;;;;;4974440;28;20042;-77
2024/03/19 03:20:23;;;;;;;23.05;11.75;;;8.60;99.90;;;;;;4955668;28;20038;-78
2024/03/19 03:22:49;;;;;;;23.08;12.20;;;8.60;99.90;;;;;;4990079;28;20109;-78
2024/03/19 03:25:15;;;;;;;30.33;13.75;;;8.60;99.90;;;;;;4975260;28;20117;-78
2024/03/19 03:27:44;;;;;;;26.92;13.68;;;8.50;99.90;;;;;;4988768;28;20508;-78
2024/03/19 03:30:10;;;;;;;24.90;12.57;;;8.50;99.90;;;;;;4993453;28;20484;-78
2024/03/19 03:32:42;;;;;;;34.40;14.15;;;8.50;99.90;;;;;;4971879;28;20555;-79
2024/03/19 03:35:08;;;;;;;26.58;13.32;;;8.50;99.90;;;;;;4973818;28;20039;-78
2024/03/19 03:37:34;;;;;;;23.85;14.43;;;8.40;99.90;;;;;;4958272;28;20412;-78
2024/03/19 03:40:00;;;;;;;36.17;13.98;;;8.40;99.90;;;;;;4970827;28;20064;-76
2024/03/19 03:42:25;;;;;;;28.15;14.15;;;8.50;99.90;;;;;;4954854;28;21166;-77
2024/03/19 03:44:51;;;;;;;21.45;11.00;;;8.50;99.90;;;;;;4975721;28;20121;-79
2024/03/19 03:47:17;;;;;;;17.98;10.02;;;8.70;99.90;;;;;;4955421;28;20480;-78
2024/03/19 03:49:45;;;;;;;23.92;11.48;;;8.70;99.90;;;;;;4953303;28;20038;-78
2024/03/19 03:52:11;;;;;;;26.67;13.02;;;8.60;99.90;;;;;;4954119;28;20543;-77
2024/03/19 03:54:37;;;;;;;31.15;14.88;;;8.60;99.90;;;;;;4952965;28;20030;-76
2024/03/19 03:57:02;;;;;;;35.67;14.75;;;8.60;99.90;;;;;;4953628;28;20076;-77
2024/03/19 03:59:28;;;;;;;23.50;12.50;;;8.50;99.90;;;;;;4969198;28;20114;-76
2024/03/19 04:01:53;;;;;;;21.55;9.75;;;8.50;99.90;;;;;;4971114;28;20026;-78
2024/03/19 04:04:19;;;;;;;27.85;12.15;;;8.50;99.90;;;;;;4978609;28;20034;-77
2024/03/19 04:06:45;;;;;;;24.98;12.43;;;8.50;99.90;;;;;;4954906;28;20546;-78
2024/03/19 04:09:10;;;;;;;25.73;14.15;;;8.50;99.90;;;;;;4969131;28;20038;-77
2024/03/19 04:11:36;;;;;;;20.80;10.70;;;8.50;99.90;;;;;;4989997;28;20042;-77
2024/03/19 04:14:01;;;;;;;12.77;7.78;;;8.70;99.90;;;;;;4972347;28;20049;-77
2024/03/19 04:16:27;;;;;;;30.20;11.80;;;8.70;99.90;;;;;;4988071;28;20114;-78
2024/03/19 04:18:52;;;;;;;24.50;12.45;;;8.80;99.90;;;;;;4955960;28;20054;-77
2024/03/19 04:21:18;;;;;;;15.85;8.93;;;8.70;99.90;;;;;;4971571;28;20077;-77
2024/03/19 04:23:44;;;;;;;23.15;11.77;;;8.70;99.90;;;;;;4968237;28;20029;-77
2024/03/19 04:26:09;;;;;;;16.48;8.23;;;8.60;99.90;;;;;;4955820;28;20068;-78
2024/03/19 04:28:35;;;;;;;25.90;13.00;;;8.50;99.90;;;;;;4954839;28;20073;-77
2024/03/19 04:31:00;;;;;;;22.73;11.43;;;8.40;99.90;;;;;;4969365;28;20431;-77
2024/03/19 04:33:26;;;;;;;24.52;12.05;;;8.40;99.90;;;;;;4970864;28;20101;-77
2024/03/19 04:35:52;;;;;;;23.88;12.85;;;8.40;99.90;;;;;;4952223;28;20102;-77
2024/03/19 04:38:17;;;;;;;23.73;11.48;;;8.40;99.90;;;;;;4969946;28;20562;-78
2024/03/19 04:40:43;;;;;;;24.67;12.07;;;8.40;99.90;;;;;;4965465;28;20038;-77
2024/03/19 04:43:09;;;;;;;27.27;12.40;;;8.40;99.90;;;;;;4983446;28;20031;-77
2024/03/19 04:45:36;;;;;;;24.27;11.50;;;8.40;99.90;;;;;;4965827;28;20530;-77
2024/03/19 04:48:01;;;;;;;18.48;9.68;;;8.40;99.90;;;;;;4966222;28;20035;-77
2024/03/19 04:50:29;;;;;;;26.25;11.98;;;8.40;99.90;;;;;;4972031;28;20183;-78
2024/03/19 04:52:54;;;;;;;27.85;11.55;;;8.40;99.90;;;;;;4974188;28;20511;-78
2024/03/19 04:55:20;;;;;;;26.98;12.05;;;8.50;99.90;;;;;;4984510;28;20054;-77
2024/03/19 04:57:46;;;;;;;24.23;11.40;;;8.50;99.90;;;;;;4958598;28;20396;-77
2024/03/19 05:00:18;;;;;;;25.13;13.32;;;8.50;99.90;;;;;;4969476;28;20066;-78
2024/03/19 05:02:47;;;;;;;25.30;13.27;;;8.40;99.90;;;;;;4970015;28;20444;-76
2024/03/19 05:05:12;;;;;;;25.75;11.80;;;8.50;99.90;;;;;;4972044;28;20031;-76
2024/03/19 05:07:39;;;;;;;23.70;11.68;;;8.60;99.90;;;;;;4971187;28;20455;-78
2024/03/19 05:10:05;;;;;;;23.38;12.77;;;8.50;99.90;;;;;;4957836;28;20077;-77
2024/03/19 05:12:31;;;;;;;22.10;11.55;;;8.60;99.90;;;;;;4962556;28;20030;-77
2024/03/19 05:14:56;;;;;;;18.75;10.18;;;8.60;99.90;;;;;;4983989;28;20030;-75
2024/03/19 05:17:22;;;;;;;22.23;10.85;;;8.60;99.90;;;;;;4952944;28;20057;-78
2024/03/19 05:19:47;;;;;;;27.23;11.40;;;8.60;99.90;;;;;;4991191;28;20873;-78
2024/03/19 05:22:14;;;;;;;27.70;11.75;;;8.60;99.90;;;;;;4964408;28;20035;-77
2024/03/19 05:24:46;;;;;;;19.35;11.40;;;8.60;99.90;;;;;;4975787;28;20044;-76
2024/03/19 05:27:12;;;;;;;19.50;11.23;;;8.60;99.90;;;;;;4971798;28;20053;-76
2024/03/19 05:29:38;;;;;;;22.77;11.90;;;8.50;99.90;;;;;;4953976;28;20093;-76
2024/03/19 05:32:05;;;;;;;21.30;11.00;;;8.40;99.90;;;;;;4975141;28;20449;-76
2024/03/19 05:34:31;;;;;;;19.80;11.77;;;8.40;99.90;;;;;;4987735;28;20053;-78
2024/03/19 05:36:57;;;;;;;25.60;11.38;;;8.30;99.90;;;;;;4972797;28;20062;-77
2024/03/19 05:39:22;;;;;;;23.40;12.25;;;8.40;99.90;;;;;;4957674;28;20034;-77
2024/03/19 05:41:48;;;;;;;30.20;13.77;;;8.40;99.90;;;;;;4969814;28;20022;-77
2024/03/19 05:44:13;;;;;;;30.02;11.40;;;8.40;99.90;;;;;;4957022;28;20136;-77
2024/03/19 05:46:39;;;;;;;28.85;12.20;;;8.40;99.90;;;;;;4974529;28;20034;-78
2024/03/19 05:49:05;;;;;;;21.77;11.38;;;8.40;99.90;;;;;;4989544;28;20085;-78
2024/03/19 05:51:31;;;;;;;22.08;11.38;;;8.40;99.90;;;;;;4978419;28;20400;-77
2024/03/19 05:53:56;;;;;;;16.02;9.60;;;8.40;99.90;;;;;;4991065;28;20061;-77
2024/03/19 05:56:23;;;;;;;22.20;11.82;;;8.50;99.90;;;;;;4957665;28;20137;-77
2024/03/19 05:58:48;;;;;;;25.20;10.23;;;8.40;99.90;;;;;;4975440;28;20042;-77
2024/03/19 06:01:14;;;;;;;15.68;8.05;;;8.50;99.90;;;;;;4976246;28;20095;-78
2024/03/19 06:03:39;;;;;;;11.63;6.35;;;8.60;99.90;;;;;;4991318;28;20030;-77
2024/03/19 06:06:08;;;;;;;11.85;6.28;;;8.70;99.90;;;;;;4994797;28;20121;-77
2024/03/19 06:08:37;;;;;;;24.02;10.85;;;8.60;99.90;;;;;;4999011;28;20116;-77
2024/03/19 06:11:03;;;;;;;16.52;7.47;;;8.80;99.90;;;;;;4993659;28;20522;-77
2024/03/19 06:13:29;;;;;;;25.00;10.82;;;8.80;99.90;;;;;;4992503;28;20034;-78
2024/03/19 06:15:54;;;;;;;20.92;9.13;;;8.90;99.90;;;;;;4990857;28;20038;-77
2024/03/19 06:18:21;;;;;;;13.98;8.13;;;8.80;99.90;;;;;;4995255;28;20038;-77
2024/03/19 06:20:46;;;;;;;17.67;8.70;;;8.80;99.90;;;;;;4990180;28;20118;-76
2024/03/19 06:23:13;;;;;;;13.38;7.88;;;8.80;99.90;;;;;;5007921;28;20132;-76
2024/03/19 06:25:39;;;;;;;25.83;12.13;;;9.00;99.90;;;;;;5007014;28;20057;-76
2024/03/19 06:28:05;;;;;;;24.63;12.30;;;8.80;99.90;;;;;;4981763;28;20423;-77
2024/03/19 06:30:31;;;;;;;22.10;12.05;;;8.80;99.90;;;;;;4990041;28;20050;-77
2024/03/19 06:32:58;;;;;;;23.00;12.57;;;8.90;99.90;;;;;;5007934;28;20137;-77
2024/03/19 06:35:23;;;;;;;25.38;13.20;;;8.90;99.90;;;;;;4993071;28;20084;-76
2024/03/19 06:37:49;;;;;;;21.23;10.70;;;8.80;99.90;;;;;;4995960;28;20488;-76
2024/03/19 06:40:17;;;;;;;25.25;12.82;;;8.90;99.90;;;;;;4977518;28;20041;-76
2024/03/19 06:42:43;;;;;;;27.02;12.15;;;8.90;99.90;;;;;;4992587;28;20084;-77
2024/03/19 06:45:08;;;;;;;19.67;10.70;;;8.90;99.90;;;;;;4992650;28;20495;-76
2024/03/19 06:47:40;;;;;;;16.23;10.05;;;9.00;99.90;;;;;;4969308;28;20687;-76
2024/03/19 06:50:14;;;;;;;27.30;12.43;;;9.20;99.90;;;;;;4990968;28;20084;-76
2024/03/19 06:52:43;;;;;;;16.10;7.68;;;9.10;99.90;;;;;;5007410;28;20469;-77
2024/03/19 06:55:09;;;;;;;21.65;12.70;;;9.20;99.90;;;;;;5008970;28;20038;-76
2024/03/19 06:57:35;;;;;;;21.88;11.60;;;9.20;99.90;;;;;;5006977;28;20038;-78
2024/03/19 07:00:00;;;;;;;20.88;12.30;;;9.40;99.90;;;;;;5013665;28;20044;-76
2024/03/19 07:02:28;;;;;;;17.33;9.20;;;9.40;99.90;;;;;;4988150;28;20083;-76
2024/03/19 07:04:54;;;;;;;25.30;12.25;;;9.40;99.90;;;;;;5007118;28;20034;-76
2024/03/19 07:07:19;;;;;;;14.75;6.72;;;9.40;99.90;;;;;;4992759;28;20036;-76
2024/03/19 07:09:45;;;;;;;16.77;10.15;;;9.50;99.90;;;;;;5004112;28;20060;-76
2024/03/19 07:12:11;;;;;;;24.02;12.60;;;9.60;99.90;;;;;;4963410;28;20523;-76
2024/03/19 07:14:37;;;;;;;28.20;12.32;;;9.60;99.90;;;;;;4955374;28;20067;-75
2024/03/19 07:17:03;;;;;;;27.52;12.93;;;9.70;99.90;;;;;;5005938;28;20091;-75
2024/03/19 07:19:29;;;;;;;22.25;11.80;;;9.70;99.90;;;;;;5007087;28;20037;-74
2024/03/19 07:21:54;;;;;;;28.08;11.35;;;9.80;99.90;;;;;;4968658;28;20042;-77
2024/03/19 07:24:20;;;;;;;22.13;11.65;;;9.80;99.90;;;;;;4971263;28;20483;-77
2024/03/19 07:26:45;;;;;;;27.83;10.45;;;9.90;99.90;;;;;;4970402;28;20030;-77
2024/03/19 07:29:12;;;;;;;17.67;7.93;;;10.00;99.90;;;;;;4987387;28;20038;-76
2024/03/19 07:31:40;;;;;;;18.10;10.15;;;10.10;99.90;;;;;;4969978;28;20033;-77
2024/03/19 07:34:06;;;;;;;9.35;6.85;;;10.20;99.90;;;;;;4954720;28;20061;-77
2024/03/19 07:36:32;;;;;;;15.48;8.27;;;10.30;99.90;;;;;;4972039;28;20480;-77
2024/03/19 07:38:57;;;;;;;18.38;10.32;;;10.40;99.90;;;;;;4968238;28;20034;-77
2024/03/19 07:41:23;;;;;;;11.68;6.43;;;10.50;99.90;;;;;;4954828;28;20492;-76
2024/03/19 07:43:49;;;;;;;24.15;11.25;;;10.60;99.90;;;;;;4984641;28;20045;-77
2024/03/19 07:46:16;;;;;;;15.13;7.88;;;10.70;99.90;;;;;;4964467;28;20743;-77
2024/03/19 07:48:43;;;;;;;24.23;11.82;;;10.70;99.90;;;;;;4984176;28;20030;-77
2024/03/19 07:51:09;;;;;;;17.73;7.78;;;10.90;99.90;;;;;;4967492;28;20541;-78
2024/03/19 07:53:34;;;;;;;17.23;8.88;;;11.00;99.90;;;;;;4970564;28;20033;-77
2024/03/19 07:56:00;;;;;;;14.07;8.43;;;11.10;99.90;;;;;;4987736;28;20034;-77
2024/03/19 07:58:25;;;;;;;17.90;8.93;;;11.20;99.90;;;;;;4983918;28;20042;-77
2024/03/19 08:00:55;;;;;;;18.20;8.43;;;11.30;99.90;;;;;;4968254;28;20030;-77
2024/03/19 08:03:21;;;;;;;18.17;8.70;;;11.50;99.90;;;;;;4969447;28;20023;-77
2024/03/19 08:05:46;;;;;;;17.15;8.02;;;11.60;99.90;;;;;;4968762;28;20749;-77
2024/03/19 08:08:12;;;;;;;21.30;10.00;;;11.70;99.90;;;;;;4968385;28;20125;-77
2024/03/19 08:10:38;;;;;;;25.55;11.90;;;11.80;99.90;;;;;;4966749;28;20054;-77
2024/03/19 08:13:03;;;;;;;17.33;8.43;;;11.90;99.90;;;;;;4957103;28;20033;-77
2024/03/19 08:15:32;;;;;;;16.15;8.85;;;12.00;99.90;;;;;;4973108;28;20045;-77
2024/03/19 08:17:57;;;;;;;16.55;8.77;;;12.10;99.90;;;;;;4971091;28;20614;-76
2024/03/19 08:20:23;;;;;;;19.25;9.52;;;12.30;99.90;;;;;;4970676;28;20042;-77
2024/03/19 08:22:49;;;;;;;18.08;8.38;;;12.50;99.90;;;;;;4979300;28;20081;-77
2024/03/19 08:25:14;;;;;;;19.63;9.55;;;12.60;99.90;;;;;;4969944;28;20045;-77
2024/03/19 08:27:40;;;;;;;22.95;10.63;;;12.70;99.90;;;;;;4949583;28;20049;-76
2024/03/19 08:30:08;;;;;;;15.05;8.05;;;12.80;99.90;;;;;;4964467;28;20420;-77
2024/03/19 08:32:34;;;;;;;21.90;11.43;;;12.90;99.90;;;;;;4971110;28;20038;-76
2024/03/19 08:35:10;;;;;;;12.48;7.10;;;13.20;99.90;;;;;;4954477;28;20038;-77
2024/03/19 08:37:38;;;;;;;;;;;13.20;99.90;;;;;;4971639;28;20044;-77
2024/03/19 08:40:11;;;;;;;24.38;10.38;;;13.30;99.90;;;;;;4971105;28;19914;-79
2024/03/19 08:42:36;;;;;;;14.93;7.53;;;13.50;99.90;;;;;;4965582;28;20624;-80
2024/03/19 08:45:10;;;;;;;23.02;9.90;;;13.50;99.90;;;;;;4984352;28;20037;-80
2024/03/19 08:47:37;;;;;;;11.48;6.93;;;13.50;99.90;;;;;;4983393;28;20042;-80
2024/03/19 08:50:02;;;;;;;14.07;7.22;;;13.80;99.90;;;;;;4985015;28;20046;-80
2024/03/19 08:52:28;;;;;;;15.60;7.25;;;13.90;99.90;;;;;;4984262;28;20038;-79
2024/03/19 08:54:54;;;;;;;22.73;10.63;;;13.90;99.90;;;;;;4978991;28;20034;-79
2024/03/19 08:57:19;;;;;;;22.65;9.73;;;14.20;99.90;;;;;;4987537;28;20045;-79
2024/03/19 08:59:46;;;;;;;18.20;7.40;;;14.60;99.90;;;;;;4953180;28;20038;-79
2024/03/19 09:02:11;;;;;;;19.77;8.07;;;14.70;99.90;;;;;;4968428;28;20034;-78
2024/03/19 09:04:37;;;;;;;26.00;9.85;;;14.50;99.90;;;;;;4970468;28;20152;-78
2024/03/19 09:07:03;;;;;;;16.23;7.68;;;14.30;99.90;;;;;;4988611;28;20045;-79
2024/03/19 09:09:29;;;;;;;17.42;6.93;;;14.20;99.90;;;;;;4971828;28;20138;-78
2024/03/19 09:11:54;;;;;;;23.10;8.55;;;14.40;99.90;;;;;;4955387;28;20224;-79
2024/03/19 09:14:20;;;;;;;17.77;8.20;;;14.60;99.90;;;;;;4955875;28;20145;-79
2024/03/19 09:16:46;;;;;;;17.90;8.68;;;14.90;99.90;;;;;;4986943;28;20117;-78
2024/03/19 09:19:11;;;;;;;18.38;8.85;;;15.00;99.90;;;;;;4987588;28;20053;-79
2024/03/19 09:21:37;;;;;;;13.13;7.05;;;15.20;99.90;;;;;;4971756;28;21637;-79
2024/03/19 09:24:02;;;;;;;15.32;7.30;;;15.20;99.90;;;;;;4975919;28;20034;-79
2024/03/19 09:26:28;;;;;;;14.35;7.43;;;14.90;99.90;;;;;;4976810;28;20018;-79
2024/03/19 09:28:56;;;;;;;12.70;6.43;;;15.10;99.90;;;;;;4975052;28;20026;-80
2024/03/19 09:31:21;;;;;;;15.38;6.95;;;15.50;99.90;;;;;;4991855;28;20088;-79
2024/03/19 09:33:47;;;;;;;11.27;5.97;;;15.50;99.90;;;;;;4993590;28;20022;-80
2024/03/19 09:36:13;;;;;;;13.32;6.80;;;15.90;99.90;;;;;;4990648;28;20585;-79
2024/03/19 09:38:38;;;;;;;15.73;6.70;;;15.90;99.90;;;;;;4990054;28;20036;-80
2024/03/19 09:41:04;;;;;;;15.98;6.03;;;16.10;99.90;;;;;;4989006;28;20035;-80
2024/03/19 09:43:35;;;;;;;10.15;5.47;;;15.80;99.90;;;;;;4996540;28;20079;-79
2024/03/19 09:46:01;;;;;;;8.32;5.20;;;16.20;99.90;;;;;;5009480;28;20087;-80
2024/03/19 09:48:27;;;;;;;13.65;5.40;;;16.20;99.90;;;;;;4981977;28;20599;-80
2024/03/19 09:50:52;;;;;;;11.13;5.13;;;16.80;99.90;;;;;;5000827;28;20053;-80
2024/03/19 09:53:23;;;;;;;10.07;4.38;;;17.20;99.90;;;;;;4987823;28;20038;-80
2024/03/19 09:55:49;;;;;;;7.22;4.00;;;17.60;99.90;;;;;;4983227;28;20161;-79
2024/03/19 09:58:15;;;;;;;7.82;3.90;;;17.60;99.90;;;;;;4971611;28;20121;-80
2024/03/19 10:00:45;;;;;;;8.77;3.33;;;17.70;99.90;;;;;;4987673;28;20441;-79
2024/03/19 10:03:11;;;;;;;11.20;4.72;;;17.20;99.90;;;;;;4974503;28;20396;-79
2024/03/19 10:05:36;;;;;;;12.93;5.10;;;17.50;99.90;;;;;;4990683;28;20034;-79
2024/03/19 10:08:02;;;;;;;12.55;4.78;;;17.20;99.90;;;;;;4988626;28;20511;-79
2024/03/19 10:10:29;;;;;;;10.88;4.65;;;17.90;99.90;;;;;;4971433;28;20064;-79
2024/03/19 10:12:54;;;;;;;12.40;4.75;;;18.50;99.90;;;;;;4974091;28;20069;-79
2024/03/19 10:15:21;;;;;;;6.13;2.85;;;18.20;99.90;;;;;;4989287;28;20420;-79
2024/03/19 10:17:47;;;;;;;7.72;3.20;;;17.90;99.90;;;;;;4989190;28;20034;-79
2024/03/19 10:20:14;;;;;;;9.07;2.78;;;17.90;99.90;;;;;;4977714;28;20110;-79
2024/03/19 10:22:40;;;;;;;6.07;2.78;;;18.20;99.90;;;;;;4974178;28;20032;-79
2024/03/19 10:25:06;;;;;;;10.02;3.10;;;18.20;99.90;;;;;;4971721;28;20041;-79
2024/03/19 10:27:32;;;;;;;6.20;2.30;;;18.30;99.90;;;;;;4969353;28;20034;-79
2024/03/19 10:29:57;;;;;;;8.40;2.90;;;18.70;99.90;;;;;;4974737;28;20505;-79
2024/03/19 10:32:27;;;;;;;5.85;2.75;;;18.30;99.90;;;;;;4968205;28;20072;-78
2024/03/19 10:34:53;;;;;;;7.32;2.80;;;18.30;99.90;;;;;;4959164;28;20512;-79
2024/03/19 10:37:18;;;;;;;9.15;2.92;;;18.60;99.90;;;;;;4978347;28;20192;-79
2024/03/19 10:39:45;;;;;;;4.57;1.85;;;18.40;99.90;;;;;;4973151;28;20031;-79
2024/03/19 10:42:12;;;;;;;13.77;3.22;;;18.70;99.90;;;;;;4954505;28;20041;-79
2024/03/19 10:44:38;;;;;;;10.18;2.97;;;18.50;99.90;;;;;;4973145;28;20121;-79
2024/03/19 10:47:03;;;;;;;7.45;3.22;;;18.70;99.90;;;;;;4987580;28;20113;-79
2024/03/19 10:49:31;;;;;;;8.05;2.25;;;19.00;99.90;;;;;;4967041;28;20034;-79
2024/03/19 10:52:05;;;;;;;6.00;2.05;;;18.90;99.90;;;;;;4636696;28;10000320;-80
2024/03/19 10:54:35;;;;;;;5.30;1.95;;;18.90;99.90;;;;;;4969807;28;20498;-80
2024/03/19 10:57:00;;;;;;;5.93;2.03;;;19.00;99.90;;;;;;4986590;28;20058;-80
2024/03/19 10:59:35;;;;;;;8.80;2.22;;;18.90;99.90;;;;;;4969061;28;20061;-79
2024/03/19 11:02:04;;;;;;;3.37;2.13;;;19.00;99.90;;;;;;4984731;28;20035;-80
2024/03/19 11:04:30;;;;;;;7.13;2.03;;;19.30;99.90;;;;;;4956501;28;20034;-79
2024/03/19 11:06:56;;;;;;;6.05;1.40;;;19.60;99.90;;;;;;4952587;28;20038;-79
2024/03/19 11:09:25;;;;;;;6.93;1.60;;;19.60;99.90;;;;;;4966456;28;20065;-79
2024/03/19 11:11:51;;;;;;;6.57;2.05;;;19.70;99.90;;;;;;4988220;28;20108;-80
2024/03/19 11:14:17;;;;;;;4.00;1.20;;;20.10;99.90;;;;;;4967814;28;20034;-80
2024/03/19 11:16:44;;;;;;;7.28;1.48;;;20.20;99.90;;;;;;4957593;28;20034;-80
2024/03/19 11:19:23;;;;;;;4.32;1.10;;;20.00;99.90;;;;;;4981319;28;20570;-80
2024/03/19 11:21:57;;;;;;;4.53;1.25;;;19.70;99.90;;;;;;4969286;28;20038;-80
2024/03/19 11:24:38;;;;;;;2.45;1.33;;;19.80;99.90;;;;;;4967076;28;20050;-80
2024/03/19 11:27:07;;;;;;;5.22;1.73;;;20.30;99.90;;;;;;4977620;28;20046;-81
2024/03/19 11:29:40;;;;;;;4.80;1.05;;;20.20;99.90;;;;;;4969678;28;20454;-81
2024/03/19 11:32:08;;;;;;;4.50;1.48;;;20.50;99.90;;;;;;4988521;28;20041;-81
2024/03/19 11:34:34;;;;;;;3.45;1.20;;;20.30;99.90;;;;;;4955864;28;20563;-80
2024/03/19 11:36:59;;;;;;;4.20;1.23;;;20.60;99.90;;;;;;4967770;28;20050;-81
2024/03/19 11:39:27;;;;;;;2.92;1.17;;;20.50;99.90;;;;;;4982549;28;20029;-81
2024/03/19 11:41:53;;;;;;;3.90;1.50;;;20.90;99.90;;;;;;4973605;28;20031;-82
2024/03/19 11:44:19;;;;;;;4.55;1.25;;;21.10;99.90;;;;;;4966160;28;20052;-81
2024/03/19 11:46:46;;;;;;;3.53;1.30;;;20.80;99.90;;;;;;4988797;28;20037;-82
2024/03/19 11:49:27;;;;;;;3.25;1.25;;;20.80;99.90;;;;;;4973173;28;20104;-82
2024/03/19 11:52:08;;;;;;;2.72;1.05;;;21.10;99.90;;;;;;4973074;28;20038;-82
2024/03/19 11:54:38;;;;;;;3.78;0.82;;;21.10;99.90;;;;;;4987584;28;20054;-82
2024/03/19 11:57:03;;;;;;;2.55;1.23;;;21.00;99.90;;;;;;4983553;28;20133;-82
2024/03/19 11:59:30;;;;;;;5.30;1.45;;;21.00;99.90;;;;;;4965134;28;20515;-82
2024/03/19 12:01:57;;;;;;;3.10;1.10;;;21.30;99.90;;;;;;4973444;28;20044;-83
2024/03/19 12:04:23;;;;;;;6.05;1.55;;;21.20;99.90;;;;;;4971362;28;20141;-82
2024/03/19 12:06:49;;;;;;;5.28;1.25;;;21.20;99.90;;;;;;4974028;28;20523;-82
2024/03/19 12:09:19;;;;;;;4.55;1.10;;;21.10;99.90;;;;;;4973695;28;20081;-82
2024/03/19 12:11:44;;;;;;;6.30;1.40;;;21.40;99.90;;;;;;4973119;28;20567;-80
2024/03/19 12:14:14;;;;;;;3.97;1.20;;;21.40;99.90;;;;;;4975184;28;20121;-80
2024/03/19 12:16:40;;;;;;;5.28;1.80;;;21.40;99.90;;;;;;4970092;28;20488;-80
2024/03/19 12:19:05;;;;;;;3.42;1.02;;;21.50;99.40;;;;;;4949366;28;20124;-80
2024/03/19 12:21:37;;;;;;;2.78;1.58;;;21.60;99.00;;;;;;4988464;28;20140;-80
2024/03/19 12:24:03;;;;;;;4.40;1.15;;;21.50;99.90;;;;;;4985158;28;20037;-80
2024/03/19 12:26:34;;;;;;;7.43;1.30;;;21.60;98.40;;;;;;4968913;28;20043;-82
2024/03/19 12:29:00;;;;;;;6.45;1.20;;;21.70;99.30;;;;;;4969994;28;20030;-82
2024/03/19 12:31:35;;;;;;;4.30;1.40;;;21.50;99.90;;;;;;4956657;28;20053;-81
2024/03/19 12:34:16;;;;;;;7.97;1.58;;;21.70;96.70;;;;;;4970892;28;20034;-82